Map

Track Data

SID SEASON NUMBER BASIN SUBBASIN NAME ISO_TIME NATURE LAT LON WMO_WIND WMO_PRES WMO_AGENCY TRACK_TYPE DIST2LAND LANDFALL IFLAG USA_AGENCY USA_ATCF_ID USA_LAT USA_LON USA_RECORD USA_STATUS USA_WIND USA_PRES USA_SSHS USA_R34_NE USA_R34_SE USA_R34_SW USA_R34_NW USA_R50_NE USA_R50_SE USA_R50_SW USA_R50_NW USA_R64_NE USA_R64_SE USA_R64_SW USA_R64_NW USA_POCI USA_ROCI USA_RMW USA_EYE TOKYO_LAT TOKYO_LON TOKYO_GRADE TOKYO_WIND TOKYO_PRES TOKYO_R50_DIR TOKYO_R50_LONG TOKYO_R50_SHORT TOKYO_R30_DIR TOKYO_R30_LONG TOKYO_R30_SHORT TOKYO_LAND CMA_LAT CMA_LON CMA_CAT CMA_WIND CMA_PRES HKO_LAT HKO_LON HKO_CAT HKO_WIND HKO_PRES NEWDELHI_LAT NEWDELHI_LON NEWDELHI_GRADE NEWDELHI_WIND NEWDELHI_PRES NEWDELHI_CI NEWDELHI_DP NEWDELHI_POCI REUNION_LAT REUNION_LON REUNION_TYPE REUNION_WIND REUNION_PRES REUNION_TNUM REUNION_CI REUNION_RMW REUNION_R34_NE REUNION_R34_SE REUNION_R34_SW REUNION_R34_NW REUNION_R50_NE REUNION_R50_SE REUNION_R50_SW REUNION_R50_NW REUNION_R64_NE REUNION_R64_SE REUNION_R64_SW REUNION_R64_NW BOM_LAT BOM_LON BOM_TYPE BOM_WIND BOM_PRES BOM_TNUM BOM_CI BOM_RMW BOM_R34_NE BOM_R34_SE BOM_R34_SW BOM_R34_NW BOM_R50_NE BOM_R50_SE BOM_R50_SW BOM_R50_NW BOM_R64_NE BOM_R64_SE BOM_R64_SW BOM_R64_NW BOM_ROCI BOM_POCI BOM_EYE BOM_POS_METHOD BOM_PRES_METHOD NADI_LAT NADI_LON NADI_CAT NADI_WIND NADI_PRES WELLINGTON_LAT WELLINGTON_LON WELLINGTON_WIND WELLINGTON_PRES DS824_LAT DS824_LON DS824_STAGE DS824_WIND DS824_PRES TD9636_LAT TD9636_LON TD9636_STAGE TD9636_WIND TD9636_PRES TD9635_LAT TD9635_LON TD9635_WIND TD9635_PRES TD9635_ROCI NEUMANN_LAT NEUMANN_LON NEUMANN_CLASS NEUMANN_WIND NEUMANN_PRES MLC_LAT MLC_LON MLC_CLASS MLC_WIND MLC_PRES USA_GUST BOM_GUST BOM_GUST_PER REUNION_GUST REUNION_GUST_PER USA_SEAHGT USA_SEARAD_NE USA_SEARAD_SE USA_SEARAD_SW USA_SEARAD_NW STORM_SPEED STORM_DIR
1935364S16066 1936 75 SI MM NOT_NAMED 1935-12-30 06:00:00 NR -15.8000 66.4000 reunion main 1038 1012 _____O________ -1 -15.8000 66.4000 99 9.90000 6 209
1935364S16066 1936 75 SI MM NOT_NAMED 1935-12-30 09:00:00 NR -16.0800 66.2432 main 1003 983 _____P________ -1 -16.0800 66.2432 99 6 209
1935364S16066 1936 75 SI MM NOT_NAMED 1935-12-30 12:00:00 NR -16.3606 66.0845 main 978 949 _____P________ -1 -16.3606 66.0845 99 6 209
1935364S16066 1936 75 SI MM NOT_NAMED 1935-12-30 15:00:00 NR -16.6427 65.9221 main 949 924 _____P________ -1 -16.6427 65.9221 99 7 209
1935364S16066 1936 75 SI MM NOT_NAMED 1935-12-30 18:00:00 NR -16.9269 65.7545 main 924 891 _____P________ -1 -16.9269 65.7545 99 7 210
1935364S16066 1936 75 SI MM NOT_NAMED 1935-12-30 21:00:00 NR -17.2140 65.5802 main 891 858 _____P________ -1 -17.2140 65.5802 99 7 210
1935364S16066 1936 75 SI MM NOT_NAMED 1935-12-31 00:00:00 NR -17.5048 65.3974 main 858 826 _____P________ -1 -17.5048 65.3974 99 7 211
1935364S16066 1936 75 SI MM NOT_NAMED 1935-12-31 03:00:00 NR -17.7998 65.2046 main 826 795 _____P________ -1 -17.7998 65.2046 99 7 212
1935364S16066 1936 75 SI MM NOT_NAMED 1935-12-31 06:00:00 NR -18.1000 65.0000 reunion main 795 764 _____O________ -1 -18.1000 65.0000 99 9.90000 7 213
1935364S16066 1936 75 SI MM NOT_NAMED 1935-12-31 09:00:00 NR -18.4066 64.7835 main 764 734 _____P________ -1 -18.4066 64.7835 99 8 214
1935364S16066 1936 75 SI MM NOT_NAMED 1935-12-31 12:00:00 NR -18.7235 64.5609 main 734 706 _____P________ -1 -18.7235 64.5609 99 8 213
1935364S16066 1936 75 SI MM NOT_NAMED 1935-12-31 15:00:00 NR -19.0552 64.3392 main 693 666 _____P________ -1 -19.0552 64.3392 99 8 211
1935364S16066 1936 75 SI MM NOT_NAMED 1935-12-31 18:00:00 NR -19.4065 64.1257 main 666 639 _____P________ -1 -19.4065 64.1257 99 8 208
1935364S16066 1936 75 SI MM NOT_NAMED 1935-12-31 21:00:00 NR -19.7819 63.9277 main 639 625 _____P________ -1 -19.7819 63.9277 99 9 204
1935364S16066 1936 75 SI MM NOT_NAMED 1936-01-01 00:00:00 NR -20.1861 63.7525 main 625 604 _____P________ -1 -20.1861 63.7525 99 9 200
1935364S16066 1936 75 SI MM NOT_NAMED 1936-01-01 03:00:00 NR -20.6238 63.6074 main 605 596 _____P________ -1 -20.6238 63.6074 99 9 195
1935364S16066 1936 75 SI MM NOT_NAMED 1936-01-01 06:00:00 NR -21.1000 63.5000 reunion main 599 599 _____O________ -1 -21.1000 63.5000 99 9.90000 11 188
1935364S16066 1936 75 SI MM NOT_NAMED 1936-01-01 09:00:00 NR -21.6962 63.4424 main 601 601 _____P________ -1 -21.6962 63.4424 99 13 183
1935364S16066 1936 75 SI MM NOT_NAMED 1936-01-01 12:00:00 NR -22.3417 63.4218 main 621 621 _____P________ -1 -22.3417 63.4218 99 13 181
1935364S16066 1936 75 SI MM NOT_NAMED 1936-01-01 15:00:00 NR -23.0143 63.4334 main 651 651 _____P________ -1 -23.0143 63.4334 99 14 178
1935364S16066 1936 75 SI MM NOT_NAMED 1936-01-01 18:00:00 NR -23.6916 63.4724 main 696 696 _____P________ -1 -23.6916 63.4724 99 13 176
1935364S16066 1936 75 SI MM NOT_NAMED 1936-01-01 21:00:00 NR -24.3512 63.5337 main 738 738 _____P________ -1 -24.3512 63.5337 99 13 174
1935364S16066 1936 75 SI MM NOT_NAMED 1936-01-02 00:00:00 NR -24.9707 63.6123 main 786 786 _____P________ -1 -24.9707 63.6123 99 12 173
1935364S16066 1936 75 SI MM NOT_NAMED 1936-01-02 03:00:00 NR -25.5278 63.7029 main 829 829 _____P________ -1 -25.5278 63.7029 99 10 171
1935364S16066 1936 75 SI MM NOT_NAMED 1936-01-02 06:00:00 NR -26.0000 63.8000 reunion main 874 874 _____O________ -1 -26.0000 63.8000 99 9.90000 9 168
1935364S16066 1936 75 SI MM NOT_NAMED 1936-01-02 09:00:00 NR -26.3712 63.8989 main 913 913 _____P________ -1 -26.3712 63.8989 99 7 165
1935364S16066 1936 75 SI MM NOT_NAMED 1936-01-02 12:00:00 NR -26.6488 63.9984 main 936 936 _____P________ -1 -26.6488 63.9984 99 5 160
1935364S16066 1936 75 SI MM NOT_NAMED 1936-01-02 15:00:00 NR -26.8464 64.0984 main 958 958 _____P________ -1 -26.8464 64.0984 99 4 152
1935364S16066 1936 75 SI MM NOT_NAMED 1936-01-02 18:00:00 NR -26.9772 64.1986 main 981 981 _____P________ -1 -26.9772 64.1986 99 3 139
1935364S16066 1936 75 SI MM NOT_NAMED 1936-01-02 21:00:00 NR -27.0546 64.2989 main 996 996 _____P________ -1 -27.0546 64.2989 99 2 123
1935364S16066 1936 75 SI MM NOT_NAMED 1936-01-03 00:00:00 NR -27.0920 64.3993 main 1003 1003 _____P________ -1 -27.0920 64.3993 99 2 105
1935364S16066 1936 75 SI MM NOT_NAMED 1936-01-03 03:00:00 NR -27.1027 64.4996 main 1010 1010 _____P________ -1 -27.1027 64.4996 99 2 93
1935364S16066 1936 75 SI MM NOT_NAMED 1936-01-03 06:00:00 NR -27.1000 64.6000 reunion main 1017 _____O________ -1 -27.1000 64.6000 99 9.90000 2 88

About IBTrACS Database

This database is a web-friendly format of International Best Track Archive for Climate Stewardship (IBTrACS), a global best track data archive curated by NOAA dating back to 1842.

Updated: 2021-10-08